TOM219 GBYD-EGCC
Flight info
| Callsign | TOM219 |
|---|---|
| Flight time | N/A |
| Altitude | 40000 |
| Route | BJ UB600 ANITI DCT NEVDI/N0484F410 DCT IDINI DCT MINBA DCT ZRT UR975 BIMOG/N0481F400 DCT BULIS UM372 MAK UB11 MABAP UR722 SAK UG5 KORIS L27 MAR DCT ALCOL DCT LOGRO DCT ETANA DCT VTB DCT RBO N867 BLV DCT BISKA P87 BELEN DCT DIDIG DCT USODA UM184 EKRAS UN867 VASUX DCT ELVOS |
| Aircraft | B788/H-SDE1E2E3FGHIJ2J3J4J5M1RWXY/LB1D1 |
Departure
| Time | 2026-04-19 13:37 |
|---|---|
| Airport | Banjul International Airport (GBYD) |
Arrival
| Time | N/A |
|---|---|
| Airport | Manchester Airport (EGCC) |
| Time | Latitude | Longitude | Altitude | Speed | Heading |
|---|---|---|---|---|---|
| 2026-04-19 12:56 | 13.34222 | -16.65249 | 97 ft | 0 kts | 131° |
| 2026-04-19 13:21 | 13.34224 | -16.65251 | 97 ft | 3 kts | 131° |
| 2026-04-19 13:21 | 13.34237 | -16.65273 | 97 ft | 4 kts | 108° |
| 2026-04-19 13:21 | 13.34238 | -16.65298 | 97 ft | 4 kts | 81° |
| 2026-04-19 13:21 | 13.34233 | -16.65321 | 97 ft | 4 kts | 74° |
| 2026-04-19 13:22 | 13.34223 | -16.65347 | 98 ft | 4 kts | 63° |
| 2026-04-19 13:22 | 13.34208 | -16.65369 | 97 ft | 4 kts | 47° |
| 2026-04-19 13:22 | 13.34188 | -16.65384 | 97 ft | 4 kts | 24° |
| 2026-04-19 13:22 | 13.34170 | -16.65390 | 97 ft | 0 kts | 9° |
| 2026-04-19 13:26 | 13.34179 | -16.65387 | 100 ft | 3 kts | 30° |
| 2026-04-19 13:26 | 13.34185 | -16.65374 | 97 ft | 2 kts | 109° |
| 2026-04-19 13:26 | 13.34158 | -16.65365 | 97 ft | 10 kts | 181° |
| 2026-04-19 13:27 | 13.34087 | -16.65320 | 98 ft | 16 kts | 129° |
| 2026-04-19 13:27 | 13.33994 | -16.65201 | 99 ft | 14 kts | 126° |
| 2026-04-19 13:27 | 13.33958 | -16.65181 | 97 ft | 3 kts | 210° |
| 2026-04-19 13:27 | 13.33936 | -16.65200 | 97 ft | 5 kts | 221° |
| 2026-04-19 13:28 | 13.33897 | -16.65234 | 96 ft | 10 kts | 220° |
| 2026-04-19 13:28 | 13.33857 | -16.65266 | 95 ft | 12 kts | 206° |
| 2026-04-19 13:28 | 13.33800 | -16.65242 | 98 ft | 10 kts | 131° |
| 2026-04-19 13:28 | 13.33755 | -16.65194 | 96 ft | 10 kts | 128° |
| 2026-04-19 13:29 | 13.33696 | -16.65119 | 95 ft | 18 kts | 131° |
| 2026-04-19 13:29 | 13.33597 | -16.64999 | 95 ft | 26 kts | 130° |
| 2026-04-19 13:29 | 13.33471 | -16.64846 | 96 ft | 29 kts | 130° |
| 2026-04-19 13:29 | 13.33345 | -16.64692 | 97 ft | 28 kts | 130° |
| 2026-04-19 13:30 | 13.33225 | -16.64545 | 98 ft | 26 kts | 131° |
| 2026-04-19 13:30 | 13.33105 | -16.64407 | 98 ft | 25 kts | 132° |
| 2026-04-19 13:30 | 13.32886 | -16.64148 | 96 ft | 18 kts | 117° |
| 2026-04-19 13:31 | 13.32880 | -16.64029 | 99 ft | 15 kts | 88° |
| 2026-04-19 13:31 | 13.32855 | -16.63948 | 96 ft | 10 kts | 147° |
| 2026-04-19 13:31 | 13.32830 | -16.63940 | 96 ft | 0 kts | 175° |
| 2026-04-19 13:32 | 13.32829 | -16.63940 | 96 ft | 0 kts | 176° |
| 2026-04-19 13:35 | 13.32827 | -16.63940 | 96 ft | 1 kts | 178° |
| 2026-04-19 13:35 | 13.32794 | -16.63942 | 95 ft | 8 kts | 189° |
| 2026-04-19 13:35 | 13.32755 | -16.63970 | 95 ft | 6 kts | 261° |
| 2026-04-19 13:35 | 13.32768 | -16.64009 | 93 ft | 7 kts | 302° |
| 2026-04-19 13:36 | 13.32783 | -16.64031 | 96 ft | 1 kts | 308° |
| 2026-04-19 13:36 | 13.32833 | -16.64092 | 96 ft | 32 kts | 310° |
| 2026-04-19 13:36 | 13.33136 | -16.64458 | 97 ft | 102 kts | 311° |
| 2026-04-19 13:36 | 13.33735 | -16.65170 | 97 ft | 162 kts | 310° |
| 2026-04-19 13:37 | 13.34556 | -16.66159 | 474 ft | 190 kts | 310° |
| 2026-04-19 13:37 | 13.35460 | -16.67133 | 1369 ft | 186 kts | 322° |
| 2026-04-19 13:37 | 13.36510 | -16.67863 | 2307 ft | 178 kts | 334° |
| 2026-04-19 13:37 | 13.37754 | -16.68145 | 2929 ft | 191 kts | 350° |
| 2026-04-19 13:38 | 13.39077 | -16.68572 | 3671 ft | 211 kts | 338° |
| 2026-04-19 13:38 | 13.40436 | -16.69327 | 4406 ft | 233 kts | 332° |
| 2026-04-19 13:38 | 13.41901 | -16.70226 | 5104 ft | 256 kts | 332° |
| 2026-04-19 13:38 | 13.43509 | -16.71172 | 5839 ft | 276 kts | 333° |
| 2026-04-19 13:39 | 13.45212 | -16.72147 | 6875 ft | 284 kts | 333° |
| 2026-04-19 13:39 | 13.46925 | -16.73135 | 7932 ft | 288 kts | 333° |
| 2026-04-19 13:39 | 13.48683 | -16.74156 | 8967 ft | 293 kts | 332° |
| 2026-04-19 13:39 | 13.50471 | -16.75193 | 9979 ft | 297 kts | 332° |
| 2026-04-19 13:40 | 13.52312 | -16.76258 | 10727 ft | 312 kts | 331° |
| 2026-04-19 13:40 | 13.54261 | -16.77387 | 11267 ft | 331 kts | 331° |
| 2026-04-19 13:40 | 13.56330 | -16.78587 | 11752 ft | 352 kts | 330° |
| 2026-04-19 13:40 | 13.58514 | -16.79855 | 12323 ft | 367 kts | 330° |
| 2026-04-19 13:41 | 13.60762 | -16.81157 | 13132 ft | 375 kts | 330° |
| 2026-04-19 13:41 | 13.63055 | -16.82486 | 13933 ft | 382 kts | 330° |
| 2026-04-19 13:41 | 13.65393 | -16.83842 | 14762 ft | 389 kts | 329° |
| 2026-04-19 13:41 | 13.67763 | -16.85218 | 15631 ft | 393 kts | 329° |
| 2026-04-19 13:42 | 13.70153 | -16.86606 | 16493 ft | 396 kts | 328° |
| 2026-04-19 13:42 | 13.72566 | -16.88006 | 17280 ft | 400 kts | 328° |
| 2026-04-19 13:42 | 13.74975 | -16.89405 | 18038 ft | 405 kts | 328° |
| 2026-04-19 13:42 | 13.77437 | -16.90834 | 18777 ft | 408 kts | 327° |
| 2026-04-19 13:43 | 13.79920 | -16.92277 | 19537 ft | 411 kts | 327° |
| 2026-04-19 13:43 | 13.82417 | -16.93728 | 20276 ft | 413 kts | 327° |
| 2026-04-19 13:43 | 13.84928 | -16.95186 | 20991 ft | 416 kts | 327° |
| 2026-04-19 13:43 | 13.87455 | -16.96655 | 21693 ft | 417 kts | 327° |
| 2026-04-19 13:44 | 13.89989 | -16.98129 | 22344 ft | 419 kts | 327° |
| 2026-04-19 13:44 | 13.92536 | -16.99611 | 22983 ft | 421 kts | 326° |
| 2026-04-19 13:44 | 13.95096 | -17.01099 | 23582 ft | 423 kts | 326° |
| 2026-04-19 13:44 | 13.97662 | -17.02591 | 24160 ft | 425 kts | 326° |
| 2026-04-19 13:45 | 14.00240 | -17.04092 | 24712 ft | 426 kts | 326° |
| 2026-04-19 13:45 | 14.02828 | -17.05601 | 25227 ft | 428 kts | 326° |
| 2026-04-19 13:45 | 14.05391 | -17.07094 | 25727 ft | 429 kts | 326° |
| 2026-04-19 13:45 | 14.07997 | -17.08611 | 26221 ft | 431 kts | 326° |
| 2026-04-19 13:46 | 14.10622 | -17.10140 | 26711 ft | 433 kts | 326° |
| 2026-04-19 13:46 | 14.13253 | -17.11674 | 27185 ft | 435 kts | 326° |
| 2026-04-19 13:46 | 14.15890 | -17.13211 | 27654 ft | 436 kts | 326° |
| 2026-04-19 13:46 | 14.18534 | -17.14752 | 28087 ft | 438 kts | 325° |
| 2026-04-19 13:47 | 14.21194 | -17.16304 | 28500 ft | 440 kts | 325° |
| 2026-04-19 13:47 | 14.23860 | -17.17860 | 28928 ft | 441 kts | 325° |
| 2026-04-19 13:47 | 14.26538 | -17.19423 | 29321 ft | 443 kts | 325° |
| 2026-04-19 13:47 | 14.29226 | -17.20991 | 29705 ft | 444 kts | 325° |
| 2026-04-19 13:48 | 14.31919 | -17.22563 | 30075 ft | 446 kts | 325° |
| 2026-04-19 13:48 | 14.34586 | -17.24121 | 30420 ft | 447 kts | 325° |
| 2026-04-19 13:48 | 14.37297 | -17.25706 | 30772 ft | 448 kts | 325° |
| 2026-04-19 13:48 | 14.40012 | -17.27293 | 31101 ft | 449 kts | 325° |
| 2026-04-19 13:49 | 14.42738 | -17.28886 | 31426 ft | 451 kts | 325° |
| 2026-04-19 13:49 | 14.45466 | -17.30481 | 31720 ft | 452 kts | 325° |
| 2026-04-19 13:49 | 14.48208 | -17.32084 | 32011 ft | 453 kts | 325° |
| 2026-04-19 13:49 | 14.50953 | -17.33691 | 32291 ft | 454 kts | 325° |
| 2026-04-19 13:50 | 14.53704 | -17.35301 | 32561 ft | 455 kts | 325° |
| 2026-04-19 13:50 | 14.56462 | -17.36917 | 32823 ft | 456 kts | 325° |
| 2026-04-19 13:50 | 14.59230 | -17.38537 | 33077 ft | 457 kts | 325° |
| 2026-04-19 13:50 | 14.62013 | -17.40141 | 33319 ft | 460 kts | 328° |
| 2026-04-19 13:51 | 14.64974 | -17.41437 | 33641 ft | 465 kts | 335° |
| 2026-04-19 13:51 | 14.68105 | -17.42319 | 34046 ft | 469 kts | 342° |
| 2026-04-19 13:51 | 14.71361 | -17.42755 | 34437 ft | 474 kts | 350° |
| 2026-04-19 13:51 | 14.74641 | -17.42725 | 34819 ft | 480 kts | 357° |
| 2026-04-19 13:52 | 14.77973 | -17.42208 | 35196 ft | 488 kts | 5° |
| 2026-04-19 13:52 | 14.81250 | -17.41191 | 35550 ft | 496 kts | 13° |
| 2026-04-19 13:52 | 14.84406 | -17.39667 | 35890 ft | 506 kts | 21° |
| 2026-04-19 13:52 | 14.87369 | -17.37649 | 36201 ft | 514 kts | 27° |
| 2026-04-19 13:53 | 14.90256 | -17.35460 | 36429 ft | 515 kts | 27° |
| 2026-04-19 13:53 | 14.93139 | -17.33259 | 36679 ft | 515 kts | 27° |
| 2026-04-19 13:53 | 14.96020 | -17.31049 | 36922 ft | 515 kts | 27° |
| 2026-04-19 13:53 | 14.98900 | -17.28848 | 37176 ft | 514 kts | 27° |
| 2026-04-19 13:54 | 15.01778 | -17.26655 | 37442 ft | 513 kts | 27° |
| 2026-04-19 13:54 | 15.04645 | -17.24465 | 37696 ft | 512 kts | 27° |
| 2026-04-19 13:54 | 15.07506 | -17.22275 | 37935 ft | 511 kts | 27° |
| 2026-04-19 13:54 | 15.10364 | -17.20089 | 38164 ft | 510 kts | 26° |
| 2026-04-19 13:55 | 15.13185 | -17.17931 | 38382 ft | 510 kts | 26° |
| 2026-04-19 13:55 | 15.16045 | -17.15742 | 38590 ft | 509 kts | 26° |
| 2026-04-19 13:55 | 15.18893 | -17.13563 | 38794 ft | 509 kts | 26° |
| 2026-04-19 13:55 | 15.21744 | -17.11379 | 38992 ft | 509 kts | 26° |
| 2026-04-19 13:56 | 15.24592 | -17.09196 | 39193 ft | 509 kts | 26° |
| 2026-04-19 13:56 | 15.27435 | -17.07017 | 39381 ft | 509 kts | 26° |
| 2026-04-19 13:56 | 15.30280 | -17.04836 | 39574 ft | 508 kts | 26° |
| 2026-04-19 13:56 | 15.33125 | -17.02655 | 39768 ft | 508 kts | 26° |
| 2026-04-19 13:57 | 15.35969 | -17.00472 | 39837 ft | 508 kts | 26° |
| 2026-04-19 13:57 | 15.41596 | -16.96148 | 39839 ft | 501 kts | 26° |
| 2026-04-19 13:58 | 15.47215 | -16.91842 | 39840 ft | 503 kts | 26° |
| 2026-04-19 13:58 | 15.52798 | -16.87542 | 39840 ft | 504 kts | 26° |
| 2026-04-19 13:59 | 15.58438 | -16.83210 | 39848 ft | 505 kts | 26° |
| 2026-04-19 13:59 | 15.64084 | -16.78860 | 39846 ft | 505 kts | 26° |
| 2026-04-19 14:00 | 15.69733 | -16.74511 | 39847 ft | 505 kts | 26° |
| 2026-04-19 14:00 | 15.75369 | -16.70164 | 39844 ft | 504 kts | 26° |
| 2026-04-19 14:01 | 15.81003 | -16.65819 | 39841 ft | 504 kts | 26° |
| 2026-04-19 14:01 | 15.86649 | -16.61464 | 39841 ft | 507 kts | 26° |
| 2026-04-19 14:02 | 15.92268 | -16.57119 | 39842 ft | 506 kts | 26° |
| 2026-04-19 14:02 | 15.97917 | -16.52754 | 39845 ft | 505 kts | 26° |
| 2026-04-19 14:03 | 16.03558 | -16.48390 | 39850 ft | 506 kts | 26° |
| 2026-04-19 14:03 | 16.09227 | -16.44003 | 39843 ft | 507 kts | 26° |
| 2026-04-19 14:04 | 16.14880 | -16.39619 | 39841 ft | 506 kts | 26° |
| 2026-04-19 14:04 | 16.20548 | -16.35231 | 39841 ft | 507 kts | 26° |
| 2026-04-19 14:05 | 16.25249 | -16.31579 | 39838 ft | 508 kts | 26° |
| 2026-04-19 14:05 | 16.31865 | -16.26445 | 39846 ft | 507 kts | 26° |
| 2026-04-19 14:06 | 16.37522 | -16.22049 | 39847 ft | 507 kts | 26° |
| 2026-04-19 14:06 | 16.43180 | -16.17650 | 39834 ft | 508 kts | 26° |
| 2026-04-19 14:07 | 16.48836 | -16.13249 | 39825 ft | 507 kts | 26° |
| 2026-04-19 14:07 | 16.54487 | -16.08968 | 39841 ft | 505 kts | 25° |
| 2026-04-19 14:08 | 16.60212 | -16.04669 | 39841 ft | 507 kts | 25° |
| 2026-04-19 14:08 | 16.65954 | -16.00406 | 39848 ft | 507 kts | 25° |
| 2026-04-19 14:09 | 16.71688 | -15.96122 | 39845 ft | 507 kts | 25° |
| 2026-04-19 14:09 | 16.77424 | -15.91841 | 39856 ft | 507 kts | 25° |
| 2026-04-19 14:10 | 16.83173 | -15.87550 | 39856 ft | 509 kts | 25° |
| 2026-04-19 14:10 | 16.88930 | -15.83243 | 39855 ft | 509 kts | 25° |
| 2026-04-19 14:11 | 16.94648 | -15.78966 | 39855 ft | 508 kts | 25° |
| 2026-04-19 14:11 | 17.00406 | -15.74655 | 39854 ft | 509 kts | 26° |
| 2026-04-19 14:12 | 17.06160 | -15.70344 | 39854 ft | 509 kts | 26° |
| 2026-04-19 14:12 | 17.11923 | -15.66022 | 39855 ft | 510 kts | 26° |
| 2026-04-19 14:13 | 17.17689 | -15.61694 | 39854 ft | 510 kts | 26° |
| 2026-04-19 14:13 | 17.23448 | -15.57369 | 39853 ft | 509 kts | 26° |
| 2026-04-19 14:14 | 17.29172 | -15.53067 | 39853 ft | 509 kts | 26° |
| 2026-04-19 14:14 | 17.34930 | -15.48735 | 39853 ft | 509 kts | 26° |
| 2026-04-19 14:15 | 17.40685 | -15.44404 | 39853 ft | 510 kts | 26° |
| 2026-04-19 14:15 | 17.46442 | -15.40066 | 39853 ft | 509 kts | 26° |
| 2026-04-19 14:16 | 17.52204 | -15.35723 | 39854 ft | 510 kts | 26° |
| 2026-04-19 14:16 | 17.57956 | -15.31379 | 39852 ft | 508 kts | 26° |
| 2026-04-19 14:17 | 17.63669 | -15.27071 | 39851 ft | 508 kts | 24° |
| 2026-04-19 14:17 | 17.69698 | -15.23334 | 39869 ft | 504 kts | 20° |
| 2026-04-19 14:18 | 17.74736 | -15.20269 | 39869 ft | 502 kts | 20° |
| 2026-04-19 14:18 | 17.80790 | -15.16614 | 39867 ft | 502 kts | 20° |
| 2026-04-19 14:19 | 17.86836 | -15.12945 | 39868 ft | 502 kts | 20° |
| 2026-04-19 14:19 | 17.92894 | -15.09274 | 39868 ft | 502 kts | 20° |
| 2026-04-19 14:20 | 17.98954 | -15.05595 | 39868 ft | 503 kts | 20° |
| 2026-04-19 14:20 | 18.05019 | -15.01911 | 39870 ft | 504 kts | 20° |
| 2026-04-19 14:21 | 18.11065 | -14.98235 | 39870 ft | 505 kts | 20° |
| 2026-04-19 14:21 | 18.17151 | -14.94532 | 39871 ft | 505 kts | 20° |
| 2026-04-19 14:22 | 18.23242 | -14.90823 | 39868 ft | 505 kts | 20° |
| 2026-04-19 14:22 | 18.29323 | -14.87118 | 39867 ft | 505 kts | 20° |
| 2026-04-19 14:23 | 18.35406 | -14.83409 | 39868 ft | 505 kts | 20° |
| 2026-04-19 14:23 | 18.41491 | -14.79693 | 39867 ft | 505 kts | 20° |
| 2026-04-19 14:24 | 18.47569 | -14.75981 | 39869 ft | 505 kts | 20° |
| 2026-04-19 14:24 | 18.53605 | -14.72290 | 39868 ft | 505 kts | 20° |
| 2026-04-19 14:25 | 18.59687 | -14.68569 | 39866 ft | 505 kts | 20° |
| 2026-04-19 14:25 | 18.65758 | -14.64851 | 39866 ft | 505 kts | 20° |
| 2026-04-19 14:26 | 18.71833 | -14.61127 | 39867 ft | 505 kts | 20° |
| 2026-04-19 14:26 | 18.77916 | -14.57394 | 39867 ft | 504 kts | 20° |
| 2026-04-19 14:27 | 18.83983 | -14.53671 | 39867 ft | 504 kts | 20° |
| 2026-04-19 14:27 | 18.89996 | -14.49975 | 39874 ft | 503 kts | 20° |
| 2026-04-19 14:28 | 18.96053 | -14.46251 | 39874 ft | 503 kts | 20° |
| 2026-04-19 14:28 | 19.02103 | -14.42526 | 39872 ft | 503 kts | 20° |
| 2026-04-19 14:29 | 19.08155 | -14.38799 | 39886 ft | 505 kts | 21° |
| 2026-04-19 14:29 | 19.14236 | -14.35048 | 39887 ft | 506 kts | 21° |
| 2026-04-19 14:30 | 19.20308 | -14.31302 | 39896 ft | 505 kts | 21° |
| 2026-04-19 14:30 | 19.26373 | -14.27554 | 39893 ft | 504 kts | 21° |
| 2026-04-19 14:31 | 19.32433 | -14.23811 | 39892 ft | 506 kts | 21° |
| 2026-04-19 14:31 | 19.38467 | -14.20076 | 39903 ft | 506 kts | 21° |
| 2026-04-19 14:32 | 19.44540 | -14.16315 | 39902 ft | 506 kts | 21° |
| 2026-04-19 14:32 | 19.50615 | -14.12551 | 39912 ft | 506 kts | 21° |
| 2026-04-19 14:33 | 19.56698 | -14.08777 | 39912 ft | 506 kts | 21° |
| 2026-04-19 14:33 | 19.62776 | -14.05003 | 39922 ft | 505 kts | 22° |
| 2026-04-19 14:34 | 19.68850 | -14.01229 | 39920 ft | 507 kts | 22° |
| 2026-04-19 14:34 | 19.74941 | -13.97450 | 39930 ft | 505 kts | 19° |
| 2026-04-19 14:35 | 19.84358 | -13.92756 | 39943 ft | 500 kts | 16° |
| 2026-04-19 14:35 | 19.90666 | -13.89648 | 39943 ft | 500 kts | 16° |
| 2026-04-19 14:36 | 19.96983 | -13.86539 | 39943 ft | 500 kts | 16° |
| 2026-04-19 14:36 | 20.03312 | -13.83414 | 39944 ft | 501 kts | 16° |
| 2026-04-19 14:37 | 20.09595 | -13.80313 | 39945 ft | 500 kts | 16° |
| 2026-04-19 14:37 | 20.15901 | -13.77196 | 39943 ft | 500 kts | 16° |
| 2026-04-19 14:38 | 20.22205 | -13.74079 | 39943 ft | 498 kts | 17° |
| 2026-04-19 14:38 | 20.25305 | -13.72537 | 39944 ft | 486 kts | 16° |
| 2026-04-19 14:38 | 20.28340 | -13.71030 | 39942 ft | 475 kts | 16° |
| 2026-04-19 14:39 | 20.34210 | -13.68129 | 39942 ft | 454 kts | 15° |
| 2026-04-19 14:39 | 20.39827 | -13.65346 | 39950 ft | 447 kts | 15° |
| 2026-04-19 14:40 | 20.45518 | -13.62527 | 39958 ft | 452 kts | 16° |
| 2026-04-19 14:40 | 20.51218 | -13.59689 | 39954 ft | 451 kts | 16° |
| 2026-04-19 14:41 | 20.56915 | -13.56862 | 39958 ft | 452 kts | 16° |
| 2026-04-19 14:41 | 20.62627 | -13.54018 | 39957 ft | 454 kts | 16° |
| 2026-04-19 14:42 | 20.68347 | -13.51169 | 39954 ft | 453 kts | 16° |
| 2026-04-19 14:42 | 20.74058 | -13.48325 | 39958 ft | 453 kts | 17° |
| 2026-04-19 14:43 | 20.79775 | -13.45472 | 39957 ft | 454 kts | 17° |
| 2026-04-19 14:43 | 20.85503 | -13.42615 | 39958 ft | 455 kts | 17° |
| 2026-04-19 14:44 | 20.91240 | -13.39746 | 39958 ft | 455 kts | 17° |
| 2026-04-19 14:44 | 20.96984 | -13.36875 | 39957 ft | 455 kts | 17° |
| 2026-04-19 14:45 | 21.02681 | -13.34024 | 39957 ft | 454 kts | 17° |
| 2026-04-19 14:45 | 21.08411 | -13.31154 | 39956 ft | 455 kts | 17° |
| 2026-04-19 14:46 | 21.14155 | -13.28274 | 39959 ft | 456 kts | 17° |
| 2026-04-19 14:46 | 21.19904 | -13.25390 | 39961 ft | 456 kts | 17° |
| 2026-04-19 14:47 | 21.25660 | -13.22499 | 39956 ft | 457 kts | 18° |
| 2026-04-19 14:47 | 21.31422 | -13.19604 | 39957 ft | 457 kts | 18° |
| 2026-04-19 14:48 | 21.37191 | -13.16700 | 39960 ft | 458 kts | 18° |
| 2026-04-19 14:48 | 21.42955 | -13.13800 | 39960 ft | 457 kts | 18° |
| 2026-04-19 14:49 | 21.48713 | -13.10897 | 39960 ft | 457 kts | 18° |